createdAt,value
2022-12-06T00:01:40.539Z,4.28
2022-12-06T00:04:12.300Z,5.45
2022-12-06T00:06:41.867Z,87.13
2022-12-06T00:09:18.980Z,5.15
2022-12-06T00:11:46.920Z,5.18
2022-12-06T00:14:15.097Z,13.60
2022-12-06T00:16:43.136Z,95.72
2022-12-06T00:19:15.541Z,7.45
2022-12-06T00:21:43.848Z,6.35
2022-12-06T00:24:31.129Z,11.70
2022-12-06T00:26:58.983Z,10.43
2022-12-06T00:29:27.418Z,3.92
2022-12-06T00:31:55.417Z,8.15
2022-12-06T00:34:23.862Z,4.53
2022-12-06T00:36:51.764Z,5.95
2022-12-06T00:39:19.631Z,6.72
2022-12-06T00:41:47.629Z,7.28
2022-12-06T00:44:15.699Z,4.40
2022-12-06T00:46:43.778Z,4.20
2022-12-06T00:49:11.751Z,6.18
2022-12-06T00:51:42.654Z,6.95
2022-12-06T00:54:14.764Z,10.57
2022-12-06T00:56:42.713Z,17.20
2022-12-06T00:59:11.370Z,5.35
2022-12-06T01:01:39.419Z,4.00
2022-12-06T01:04:07.710Z,3.45
2022-12-06T01:06:36.137Z,4.93
2022-12-06T01:09:11.264Z,65.00
2022-12-06T01:11:39.381Z,4.07
2022-12-06T01:14:08.836Z,3.58
2022-12-06T01:16:36.861Z,8.75
2022-12-06T01:19:05.834Z,6.15
2022-12-06T01:21:34.250Z,6.43
2022-12-06T01:24:03.042Z,7.85
2022-12-06T01:26:35.203Z,5.40
2022-12-06T01:29:03.197Z,10.48
2022-12-06T01:31:37.722Z,4.93
2022-12-06T01:34:06.600Z,5.75
2022-12-06T01:36:34.615Z,6.32
2022-12-06T01:39:06.881Z,5.13
2022-12-06T01:41:35.100Z,4.85
2022-12-06T01:44:03.069Z,13.50
2022-12-06T01:46:45.822Z,5.18
2022-12-06T01:49:13.624Z,4.82
2022-12-06T01:51:45.053Z,5.43
2022-12-06T01:54:16.993Z,5.05
2022-12-06T01:56:45.181Z,5.15
2022-12-06T01:59:13.193Z,4.40
2022-12-06T02:01:41.665Z,7.22
2022-12-06T02:04:10.114Z,8.68
2022-12-06T02:06:43.869Z,15.40
2022-12-06T02:09:12.377Z,27.27
2022-12-06T02:11:40.376Z,5.90
2022-12-06T02:14:14.513Z,16.40
2022-12-06T02:17:00.888Z,10.30
2022-12-06T02:19:48.426Z,7.55
2022-12-06T02:22:35.494Z,7.30
2022-12-06T02:25:17.915Z,4.25
2022-12-06T02:27:56.589Z,6.97
2022-12-06T02:30:47.968Z,11.80
2022-12-06T02:33:17.974Z,6.32
2022-12-06T02:35:49.943Z,5.82
2022-12-06T02:38:33.683Z,10.38
2022-12-06T02:41:07.871Z,4.15
2022-12-06T02:43:41.994Z,11.38
2022-12-06T02:46:11.496Z,8.00
2022-12-06T02:48:39.408Z,7.10
2022-12-06T02:51:18.397Z,4.60
2022-12-06T02:53:48.408Z,5.10
2022-12-06T02:56:20.833Z,6.50
2022-12-06T02:58:48.716Z,6.75
2022-12-06T03:01:20.615Z,7.30
2022-12-06T03:03:48.541Z,4.90
2022-12-06T03:06:34.670Z,4.82
2022-12-06T03:09:05.568Z,6.30
2022-12-06T03:12:04.270Z,6.18
2022-12-06T03:15:13.147Z,14.48
2022-12-06T03:17:40.822Z,8.63
2022-12-06T03:20:29.169Z,5.78
2022-12-06T03:23:05.955Z,9.60
2022-12-06T03:25:36.718Z,7.43
2022-12-06T03:28:05.763Z,6.00
2022-12-06T03:30:36.679Z,5.07
2022-12-06T03:33:04.764Z,6.88
2022-12-06T03:35:33.847Z,8.35
2022-12-06T03:38:07.536Z,10.00
2022-12-06T03:40:39.626Z,9.60
2022-12-06T03:43:10.520Z,10.43
2022-12-06T03:45:41.254Z,6.80
2022-12-06T03:48:14.140Z,15.05
2022-12-06T03:50:55.417Z,5.57
2022-12-06T03:53:26.361Z,6.70
2022-12-06T03:55:54.597Z,6.45
2022-12-06T03:58:22.638Z,18.40
2022-12-06T04:00:50.628Z,8.95
2022-12-06T04:03:21.632Z,6.28
2022-12-06T04:05:49.621Z,9.73
2022-12-06T04:08:20.728Z,6.05
2022-12-06T04:10:48.643Z,4.40
2022-12-06T04:13:19.779Z,5.78
2022-12-06T04:15:48.120Z,11.45
2022-12-06T04:18:16.525Z,4.07
2022-12-06T04:21:16.617Z,8.52
2022-12-06T04:23:50.645Z,6.85
2022-12-06T04:26:21.611Z,6.25
2022-12-06T04:29:08.496Z,9.07
2022-12-06T04:31:54.743Z,9.63
2022-12-06T04:34:41.515Z,7.65
2022-12-06T04:37:32.564Z,9.48
2022-12-06T04:40:05.511Z,6.75
2022-12-06T04:42:51.690Z,15.23
2022-12-06T04:45:19.602Z,19.52
2022-12-06T04:47:47.560Z,5.22
2022-12-06T04:50:18.634Z,8.50
2022-12-06T04:52:48.846Z,8.38
2022-12-06T04:57:50.042Z,12.18
2022-12-06T05:00:20.938Z,10.73
2022-12-06T05:02:48.883Z,14.25
2022-12-06T05:05:16.686Z,10.13
2022-12-06T05:07:47.078Z,13.25
2022-12-06T05:10:15.139Z,12.05
2022-12-06T05:12:42.997Z,8.35
2022-12-06T05:15:15.977Z,3.17
2022-12-06T05:17:44.099Z,12.45
2022-12-06T05:20:12.215Z,14.57
2022-12-06T05:22:43.521Z,19.98
2022-12-06T05:25:11.907Z,14.38
2022-12-06T05:27:42.187Z,10.13
2022-12-06T05:32:44.718Z,8.45
2022-12-06T05:35:12.669Z,8.27
2022-12-06T05:37:45.780Z,16.75
2022-12-06T05:40:13.777Z,10.68
2022-12-06T05:42:44.620Z,18.25
2022-12-06T05:45:12.773Z,8.75
2022-12-06T05:47:42.946Z,14.02
2022-12-06T05:52:39.362Z,6.65
2022-12-06T05:55:07.314Z,13.30
2022-12-06T05:57:42.455Z,12.38
2022-12-06T06:00:14.115Z,24.83
2022-12-06T06:02:42.228Z,17.40
2022-12-06T06:05:10.346Z,49.17
2022-12-06T06:07:40.354Z,35.05
2022-12-06T06:10:08.707Z,27.42
2022-12-06T06:12:36.657Z,24.00
2022-12-06T06:15:07.943Z,13.52
2022-12-06T06:17:36.505Z,39.03
2022-12-06T06:20:08.049Z,22.75
2022-12-06T06:22:36.775Z,29.58
2022-12-06T06:25:07.735Z,61.22
2022-12-06T06:27:39.046Z,6.32
2022-12-06T06:30:07.353Z,36.33
2022-12-06T06:32:35.412Z,32.80
2022-12-06T06:35:11.174Z,41.90
2022-12-06T06:37:39.098Z,21.33
2022-12-06T06:40:11.512Z,39.55
2022-12-06T06:42:41.814Z,25.58
2022-12-06T06:47:37.713Z,19.52
2022-12-06T06:50:05.945Z,28.35
2022-12-06T06:52:33.944Z,27.88
2022-12-06T06:55:04.267Z,26.27
2022-12-06T07:00:03.709Z,19.98
2022-12-06T07:02:32.448Z,23.60
2022-12-06T07:05:00.457Z,41.67
2022-12-06T07:07:28.661Z,22.83
2022-12-06T07:09:56.629Z,34.85
2022-12-06T07:12:24.460Z,45.47
2022-12-06T07:14:52.392Z,18.67
2022-12-06T07:17:24.800Z,54.50
2022-12-06T07:19:52.621Z,64.40
2022-12-06T07:22:21.391Z,50.92
2022-12-06T07:24:52.550Z,69.85
2022-12-06T07:27:20.632Z,38.10
2022-12-06T07:29:49.740Z,25.45
2022-12-06T07:32:20.422Z,55.13
2022-12-06T07:34:49.966Z,40.13
2022-12-06T07:37:20.566Z,40.25
2022-12-06T07:39:49.105Z,50.83
2022-12-06T07:42:35.451Z,53.33
2022-12-06T07:45:05.711Z,54.20
2022-12-06T07:50:05.954Z,146.68
2022-12-06T07:52:37.408Z,83.47
2022-12-06T07:55:06.228Z,79.95
2022-12-06T07:57:38.678Z,84.30
2022-12-06T08:00:13.039Z,107.00
2022-12-06T08:02:41.469Z,62.97
2022-12-06T08:05:10.207Z,88.03
2022-12-06T08:07:38.783Z,72.95
2022-12-06T08:10:07.478Z,91.40
2022-12-06T08:12:35.694Z,55.05
2022-12-06T08:15:04.229Z,76.65
2022-12-06T08:17:32.419Z,27.20
2022-12-06T08:20:00.598Z,60.78
2022-12-06T08:22:29.286Z,46.05
2022-12-06T08:24:59.274Z,31.25
2022-12-06T08:27:27.188Z,57.20
2022-12-06T08:29:57.748Z,81.43
2022-12-06T08:32:26.071Z,42.72
2022-12-06T08:34:54.131Z,71.43
2022-12-06T08:37:22.185Z,106.28
2022-12-06T08:39:50.844Z,59.63
2022-12-06T08:42:25.229Z,34.67
2022-12-06T08:44:54.695Z,78.03
2022-12-06T08:47:25.124Z,77.63
2022-12-06T08:49:53.082Z,51.35
2022-12-06T08:52:21.288Z,89.82
2022-12-06T08:54:52.214Z,128.90
2022-12-06T08:57:24.263Z,95.07
2022-12-06T08:59:53.046Z,165.52
2022-12-06T09:02:21.376Z,99.43
2022-12-06T09:04:51.931Z,120.85
2022-12-06T09:07:20.674Z,120.78
2022-12-06T09:09:49.170Z,128.25
2022-12-06T09:12:20.782Z,67.45
2022-12-06T09:14:48.734Z,105.70
2022-12-06T09:17:17.928Z,107.60
2022-12-06T09:19:52.310Z,90.78
2022-12-06T09:22:20.603Z,73.75
2022-12-06T09:24:49.121Z,147.43
2022-12-06T09:27:17.665Z,132.80
2022-12-06T09:29:46.162Z,96.15
2022-12-06T09:32:14.339Z,126.55
2022-12-06T09:34:42.413Z,153.40
2022-12-06T09:37:12.840Z,106.25
2022-12-06T09:39:45.620Z,98.22
2022-12-06T09:42:31.490Z,73.97
2022-12-06T09:44:59.048Z,134.77
2022-12-06T09:47:45.386Z,158.23
2022-12-06T09:50:54.092Z,201.13
2022-12-06T09:53:28.647Z,158.25
2022-12-06T09:56:24.445Z,87.55
2022-12-06T09:59:07.852Z,136.05
2022-12-06T10:02:00.869Z,115.00
2022-12-06T10:05:11.348Z,130.70
2022-12-06T10:07:51.763Z,177.23
2022-12-06T10:10:27.564Z,178.35
2022-12-06T10:12:58.978Z,134.05
2022-12-06T10:15:51.545Z,77.40
2022-12-06T10:18:28.501Z,187.98
2022-12-06T10:21:10.969Z,124.75
2022-12-06T10:23:42.776Z,98.35
2022-12-06T10:26:14.596Z,159.65
2022-12-06T10:28:47.515Z,132.15
2022-12-06T10:31:15.404Z,173.43
2022-12-06T10:33:55.685Z,109.80
2022-12-06T10:36:38.559Z,140.50
2022-12-06T10:39:12.925Z,126.18
2022-12-06T10:42:03.885Z,163.55
2022-12-06T10:44:34.927Z,189.52
2022-12-06T10:47:09.873Z,144.45
2022-12-06T10:49:54.625Z,188.02
2022-12-06T10:52:22.515Z,182.80
2022-12-06T10:55:10.266Z,168.43
2022-12-06T10:57:56.799Z,222.32
2022-12-06T11:00:26.058Z,195.65
2022-12-06T11:03:20.683Z,149.93
2022-12-06T11:05:55.897Z,189.98
2022-12-06T11:08:29.748Z,179.40
2022-12-06T11:10:59.412Z,226.13
2022-12-06T11:13:43.712Z,252.45
2022-12-06T11:16:46.698Z,173.38
2022-12-06T11:19:52.867Z,183.00
2022-12-06T11:22:24.278Z,137.77
2022-12-06T11:25:26.361Z,135.10
2022-12-06T11:27:57.309Z,178.93
2022-12-06T11:30:25.779Z,172.50
2022-12-06T11:32:53.704Z,176.40
2022-12-06T11:35:24.398Z,144.70
2022-12-06T11:37:56.083Z,137.48
2022-12-06T11:40:23.880Z,192.60
2022-12-06T11:42:51.952Z,28.70
2022-12-06T11:45:31.046Z,112.32
2022-12-06T11:47:59.668Z,109.25
2022-12-06T11:50:30.382Z,124.47
2022-12-06T11:52:58.985Z,145.57
2022-12-06T11:55:41.364Z,79.35
2022-12-06T11:58:17.991Z,142.18
2022-12-06T12:00:58.040Z,165.18
2022-12-06T12:03:45.036Z,205.35
2022-12-06T12:06:22.117Z,193.85
2022-12-06T12:08:58.246Z,233.68
2022-12-06T12:11:27.683Z,103.80
2022-12-06T12:14:16.319Z,122.93
2022-12-06T12:16:46.651Z,124.78
2022-12-06T12:19:46.480Z,194.25
2022-12-06T12:22:40.533Z,196.68
2022-12-06T12:25:36.763Z,243.68
2022-12-06T12:28:27.072Z,238.07
2022-12-06T12:30:59.966Z,19.85
2022-12-06T12:33:28.812Z,34.47
2022-12-06T12:36:08.175Z,164.30
2022-12-06T12:38:51.685Z,25.88
2022-12-06T12:41:24.996Z,16.05
2022-12-06T12:44:38.846Z,79.07
2022-12-06T12:47:20.811Z,74.15
2022-12-06T12:50:06.206Z,59.80
2022-12-06T12:52:39.514Z,106.85
2022-12-06T12:55:24.432Z,109.07
2022-12-06T12:57:57.773Z,103.65
2022-12-06T13:00:38.044Z,163.85
2022-12-06T13:03:35.040Z,222.55
2022-12-06T13:05:59.487Z,203.30
2022-12-06T13:08:35.033Z,156.02
2022-12-06T13:11:05.472Z,166.60
2022-12-06T13:13:48.617Z,209.30
2022-12-06T13:16:20.091Z,225.40
2022-12-06T13:18:57.144Z,168.40
2022-12-06T13:21:28.966Z,135.07
2022-12-06T13:24:30.464Z,90.68
2022-12-06T13:27:12.959Z,187.43
2022-12-06T13:30:17.025Z,135.25
2022-12-06T13:32:55.958Z,201.48
2022-12-06T13:35:29.022Z,203.88
2022-12-06T13:38:03.532Z,184.02
2022-12-06T13:40:34.547Z,167.57
2022-12-06T13:43:06.778Z,56.67
2022-12-06T13:45:35.036Z,31.63
2022-12-06T13:48:02.948Z,61.13
2022-12-06T13:50:37.083Z,150.13
2022-12-06T13:53:04.977Z,31.85
2022-12-06T13:55:39.007Z,24.27
2022-12-06T13:58:10.190Z,42.95
2022-12-06T14:00:41.085Z,109.32
2022-12-06T14:03:14.888Z,18.50
2022-12-06T14:06:07.349Z,36.20
2022-12-06T14:08:45.114Z,63.22
2022-12-06T14:11:18.110Z,116.32
2022-12-06T14:13:48.915Z,141.10
2022-12-06T14:16:33.517Z,97.03
2022-12-06T14:19:01.833Z,94.22
2022-12-06T14:21:37.497Z,154.85
2022-12-06T14:24:06.140Z,129.18
2022-12-06T14:26:35.550Z,154.40
2022-12-06T14:29:03.522Z,184.15
2022-12-06T14:31:34.281Z,114.72
2022-12-06T14:34:02.282Z,170.38
2022-12-06T14:36:40.125Z,59.60
2022-12-06T14:39:09.017Z,161.88
2022-12-06T14:41:57.556Z,114.45
2022-12-06T14:44:30.006Z,230.00
2022-12-06T14:46:58.267Z,102.35
2022-12-06T14:49:45.314Z,213.85
2022-12-06T14:52:19.273Z,16.20
2022-12-06T14:54:47.254Z,9.65
2022-12-06T14:57:30.913Z,10.00
2022-12-06T15:00:18.388Z,21.05
2022-12-06T15:03:01.064Z,31.95
2022-12-06T15:05:46.109Z,20.00
2022-12-06T15:08:26.134Z,19.30
2022-12-06T15:11:43.230Z,18.17
2022-12-06T15:14:17.872Z,22.30
2022-12-06T15:16:47.269Z,14.18
2022-12-06T15:19:16.706Z,22.55
2022-12-06T15:21:44.666Z,97.03
2022-12-06T15:24:33.083Z,21.85
2022-12-06T15:27:01.062Z,24.45
2022-12-06T15:29:28.903Z,15.05
2022-12-06T15:31:56.772Z,22.17
2022-12-06T15:34:31.507Z,165.30
2022-12-06T15:37:38.269Z,19.00
2022-12-06T15:39:48.676Z,15.10
2022-12-06T15:42:21.036Z,7.43
2022-12-06T15:44:50.118Z,11.55
2022-12-06T15:47:18.773Z,8.07
2022-12-06T15:49:47.150Z,17.50
2022-12-06T15:52:19.009Z,172.70
2022-12-06T15:54:46.810Z,166.65
2022-12-06T15:57:16.996Z,150.43
2022-12-06T16:02:17.397Z,171.48
2022-12-06T16:04:48.566Z,177.43
2022-12-06T16:07:19.292Z,121.70
2022-12-06T16:09:47.574Z,166.15
2022-12-06T16:12:15.649Z,188.93
2022-12-06T16:14:43.618Z,219.65
2022-12-06T16:17:11.561Z,213.73
2022-12-06T16:19:58.402Z,109.05
2022-12-06T16:22:59.401Z,96.65
2022-12-06T16:25:27.447Z,129.45
2022-12-06T16:27:55.882Z,210.23
2022-12-06T16:30:34.501Z,171.65
2022-12-06T16:33:07.297Z,164.00
2022-12-06T16:35:35.635Z,205.90
2022-12-06T16:38:03.590Z,221.88
2022-12-06T16:40:33.616Z,227.93
2022-12-06T16:43:01.722Z,224.00
2022-12-06T16:45:29.689Z,207.10
2022-12-06T16:47:57.600Z,178.65
2022-12-06T16:50:26.942Z,167.18
2022-12-06T16:52:59.476Z,177.38
2022-12-06T16:55:27.434Z,171.38
2022-12-06T16:57:55.229Z,171.02
2022-12-06T17:00:23.331Z,201.57
2022-12-06T17:02:51.416Z,237.43
2022-12-06T17:05:24.492Z,234.45
2022-12-06T17:07:53.065Z,220.60
2022-12-06T17:10:21.739Z,162.35
2022-12-06T17:12:50.446Z,131.48
2022-12-06T17:15:19.676Z,122.15
2022-12-06T17:17:47.557Z,108.60
2022-12-06T17:20:16.067Z,132.90
2022-12-06T17:22:44.500Z,124.38
2022-12-06T17:25:13.242Z,132.38
2022-12-06T17:27:42.650Z,185.35
2022-12-06T17:30:17.823Z,184.63
2022-12-06T17:32:47.243Z,228.85
2022-12-06T17:35:18.156Z,203.10
2022-12-06T17:37:46.024Z,218.00
2022-12-06T17:40:14.337Z,225.70
2022-12-06T17:43:02.007Z,240.40
2022-12-06T17:45:48.201Z,245.45
2022-12-06T17:48:16.111Z,216.43
2022-12-06T17:50:44.190Z,280.70
2022-12-06T17:53:12.165Z,280.42
2022-12-06T17:55:39.957Z,298.48
2022-12-06T17:58:07.852Z,295.10
2022-12-06T18:00:35.913Z,259.90
2022-12-06T18:03:03.974Z,269.58
2022-12-06T18:05:33.473Z,228.60
2022-12-06T18:08:01.427Z,214.80
2022-12-06T18:10:29.382Z,267.98
2022-12-06T18:13:02.670Z,272.35
2022-12-06T18:15:39.809Z,278.55
2022-12-06T18:18:07.868Z,7.15
2022-12-06T18:20:36.041Z,3.38
2022-12-06T18:23:04.020Z,4.30
2022-12-06T18:25:33.506Z,170.38
2022-12-06T18:28:04.635Z,238.38
2022-12-06T18:30:32.571Z,254.15
2022-12-06T18:33:03.849Z,131.82
2022-12-06T18:35:31.930Z,241.48
2022-12-06T18:38:00.099Z,3.28
2022-12-06T18:40:27.963Z,3.45
2022-12-06T18:42:55.890Z,4.20
2022-12-06T18:45:23.711Z,2.33
2022-12-06T18:47:51.709Z,4.20
2022-12-06T18:50:19.837Z,3.70
2022-12-06T18:52:50.048Z,2.22
2022-12-06T18:57:45.610Z,3.38
2022-12-06T19:00:13.735Z,6.03
2022-12-06T19:02:41.617Z,2.72
2022-12-06T19:05:09.582Z,3.25
2022-12-06T19:07:37.835Z,2.72
2022-12-06T19:10:05.895Z,3.17
2022-12-06T19:12:33.650Z,2.67
2022-12-06T19:15:01.455Z,2.33
2022-12-06T19:17:29.386Z,3.78
2022-12-06T19:19:57.333Z,3.65
2022-12-06T19:22:25.783Z,5.10
2022-12-06T19:24:56.455Z,3.72
2022-12-06T19:27:24.400Z,3.25
2022-12-06T19:29:52.262Z,3.83
2022-12-06T19:32:20.039Z,4.72
2022-12-06T19:34:47.855Z,5.45
2022-12-06T19:37:15.622Z,2.70
2022-12-06T19:39:44.110Z,3.45
2022-12-06T19:42:30.555Z,2.72
2022-12-06T19:44:58.494Z,4.50
2022-12-06T19:47:26.294Z,4.18
2022-12-06T19:49:54.199Z,5.82
2022-12-06T19:52:25.392Z,2.95
2022-12-06T19:54:57.566Z,4.70
2022-12-06T19:57:25.436Z,9.48
2022-12-06T19:59:55.342Z,2.30
2022-12-06T20:02:23.480Z,3.45
2022-12-06T20:04:51.386Z,16.50
2022-12-06T20:07:19.186Z,27.55
2022-12-06T20:09:47.539Z,4.43
2022-12-06T20:12:15.282Z,16.30
2022-12-06T20:14:48.221Z,5.82
2022-12-06T20:17:25.102Z,3.40
2022-12-06T20:19:53.070Z,3.55
2022-12-06T20:22:22.888Z,1.92
2022-12-06T20:24:51.276Z,3.35
2022-12-06T20:27:39.268Z,3.72
2022-12-06T20:30:07.358Z,5.07
2022-12-06T20:32:35.188Z,3.00
2022-12-06T20:35:03.269Z,4.40
2022-12-06T20:37:31.300Z,1.38
2022-12-06T20:39:59.545Z,3.45
2022-12-06T20:42:28.853Z,3.60
2022-12-06T20:44:56.678Z,3.63
2022-12-06T20:47:24.540Z,3.03
2022-12-06T20:49:52.829Z,4.43
2022-12-06T20:52:23.905Z,4.07
2022-12-06T20:54:51.824Z,2.67
2022-12-06T20:57:21.853Z,3.58
2022-12-06T20:59:49.597Z,2.58
2022-12-06T21:02:17.483Z,1.63
2022-12-06T21:04:45.302Z,4.28
2022-12-06T21:07:13.193Z,2.80
2022-12-06T21:09:40.995Z,3.10
2022-12-06T21:12:08.923Z,6.60
2022-12-06T21:14:36.809Z,2.42
2022-12-06T21:17:04.631Z,2.80
2022-12-06T21:19:36.330Z,3.33
2022-12-06T21:22:08.182Z,3.97
2022-12-06T21:24:36.593Z,4.00
2022-12-06T21:27:04.610Z,3.22
2022-12-06T21:29:36.436Z,4.20
2022-12-06T21:32:04.218Z,3.97
2022-12-06T21:34:32.287Z,3.38
2022-12-06T21:37:00.198Z,3.42
2022-12-06T21:39:28.035Z,4.38
2022-12-06T21:41:56.014Z,3.15
2022-12-06T21:44:23.981Z,3.65
2022-12-06T21:46:52.558Z,2.67
2022-12-06T21:49:20.579Z,2.40
2022-12-06T21:51:48.472Z,3.95
2022-12-06T21:54:16.345Z,2.67
2022-12-06T21:56:44.259Z,1.45
2022-12-06T21:59:12.029Z,2.40
2022-12-06T22:01:39.750Z,3.15
2022-12-06T22:04:07.710Z,3.42
2022-12-06T22:06:37.058Z,2.47
2022-12-06T22:09:06.327Z,2.83
2022-12-06T22:11:34.795Z,4.10
2022-12-06T22:14:04.839Z,2.63
2022-12-06T22:16:33.354Z,2.90
2022-12-06T22:19:01.292Z,3.42
2022-12-06T22:21:31.777Z,1.77
2022-12-06T22:24:00.369Z,2.20
2022-12-06T22:26:30.019Z,2.40
2022-12-06T22:29:01.308Z,3.25
2022-12-06T22:31:31.218Z,2.72
2022-12-06T22:33:59.247Z,1.95
2022-12-06T22:36:27.376Z,2.67
2022-12-06T22:38:57.024Z,4.18
2022-12-06T22:41:25.257Z,1.95
2022-12-06T22:43:54.642Z,4.05
2022-12-06T22:46:22.897Z,3.72
2022-12-06T22:48:51.502Z,6.57
2022-12-06T22:51:22.116Z,3.35
2022-12-06T22:53:57.354Z,4.80
2022-12-06T22:56:25.695Z,2.13
2022-12-06T22:58:54.850Z,3.75
2022-12-06T23:01:24.831Z,1.38
2022-12-06T23:03:53.316Z,3.95
2022-12-06T23:06:23.455Z,2.53
2022-12-06T23:08:51.429Z,2.13
2022-12-06T23:11:23.632Z,3.38
2022-12-06T23:13:52.643Z,4.93
2022-12-06T23:16:21.747Z,2.80
2022-12-06T23:18:49.800Z,3.17
2022-12-06T23:21:25.334Z,4.47
2022-12-06T23:23:54.601Z,3.42
2022-12-06T23:26:24.087Z,2.80
2022-12-06T23:28:51.949Z,2.85
2022-12-06T23:31:28.501Z,4.07
2022-12-06T23:33:59.339Z,2.53
2022-12-06T23:36:30.299Z,3.80
2022-12-06T23:38:58.310Z,6.10
2022-12-06T23:41:27.345Z,5.22
2022-12-06T23:43:55.659Z,2.42
2022-12-06T23:46:24.841Z,44.78
2022-12-06T23:48:52.991Z,2.83
2022-12-06T23:51:22.381Z,3.80
2022-12-06T23:53:58.885Z,4.32
2022-12-06T23:58:58.787Z,3.88
